sensor_id;sensor_type;location;lat;lon;timestamp;pressure;altitude;pressure_sealevel;temperature;humidity
7888;BME280;3989;48.810;9.208;2023-07-13T00:01:39;98726.53;;;20.67;71.42
7888;BME280;3989;48.810;9.208;2023-07-13T00:04:06;98718.44;;;20.56;71.27
7888;BME280;3989;48.810;9.208;2023-07-13T00:06:32;98688.16;;;20.30;73.39
7888;BME280;3989;48.810;9.208;2023-07-13T00:09:00;98722.53;;;20.41;74.41
7888;BME280;3989;48.810;9.208;2023-07-13T00:11:28;98719.38;;;20.33;75.17
7888;BME280;3989;48.810;9.208;2023-07-13T00:13:56;98720.34;;;20.27;76.13
7888;BME280;3989;48.810;9.208;2023-07-13T00:16:23;98724.56;;;20.23;76.73
7888;BME280;3989;48.810;9.208;2023-07-13T00:18:49;98687.38;;;19.90;77.39
7888;BME280;3989;48.810;9.208;2023-07-13T00:21:18;98704.28;;;19.97;77.33
7888;BME280;3989;48.810;9.208;2023-07-13T00:23:44;98718.31;;;19.94;78.46
7888;BME280;3989;48.810;9.208;2023-07-13T00:26:11;98715.84;;;19.92;77.60
7888;BME280;3989;48.810;9.208;2023-07-13T00:28:39;98716.00;;;19.86;77.93
7888;BME280;3989;48.810;9.208;2023-07-13T00:31:09;98701.06;;;19.72;78.17
7888;BME280;3989;48.810;9.208;2023-07-13T00:33:35;98715.53;;;19.77;77.98
7888;BME280;3989;48.810;9.208;2023-07-13T00:36:03;98718.63;;;19.69;77.61
7888;BME280;3989;48.810;9.208;2023-07-13T00:38:30;98718.84;;;19.68;78.06
7888;BME280;3989;48.810;9.208;2023-07-13T00:40:56;98720.41;;;19.64;78.11
7888;BME280;3989;48.810;9.208;2023-07-13T00:43:26;98723.25;;;19.57;78.33
7888;BME280;3989;48.810;9.208;2023-07-13T00:46:25;98724.66;;;19.48;79.62
7888;BME280;3989;48.810;9.208;2023-07-13T00:48:53;98707.56;;;19.36;78.87
7888;BME280;3989;48.810;9.208;2023-07-13T00:51:25;98727.13;;;19.38;79.23
7888;BME280;3989;48.810;9.208;2023-07-13T00:53:54;98716.53;;;19.25;78.97
7888;BME280;3989;48.810;9.208;2023-07-13T00:56:23;98718.06;;;19.21;80.49
7888;BME280;3989;48.810;9.208;2023-07-13T00:58:50;98716.88;;;19.17;80.73
7888;BME280;3989;48.810;9.208;2023-07-13T01:01:17;98695.56;;;18.97;79.24
7888;BME280;3989;48.810;9.208;2023-07-13T01:03:45;98726.06;;;19.16;78.44
7888;BME280;3989;48.810;9.208;2023-07-13T01:06:12;98742.28;;;19.16;80.01
7888;BME280;3989;48.810;9.208;2023-07-13T01:08:39;98750.06;;;19.12;78.53
7888;BME280;3989;48.810;9.208;2023-07-13T01:11:06;98705.22;;;18.81;81.83
7888;BME280;3989;48.810;9.208;2023-07-13T01:13:34;98711.06;;;18.67;82.85
7888;BME280;3989;48.810;9.208;2023-07-13T01:16:05;98731.88;;;18.66;83.15
7888;BME280;3989;48.810;9.208;2023-07-13T01:18:38;98751.88;;;18.77;82.63
7888;BME280;3989;48.810;9.208;2023-07-13T01:21:06;98712.31;;;18.53;81.25
7888;BME280;3989;48.810;9.208;2023-07-13T01:23:32;98751.47;;;18.62;84.73
7888;BME280;3989;48.810;9.208;2023-07-13T01:25:59;98719.66;;;18.34;87.63
7888;BME280;3989;48.810;9.208;2023-07-13T01:28:27;98738.38;;;18.47;85.68
7888;BME280;3989;48.810;9.208;2023-07-13T01:30:54;98742.00;;;18.41;87.58
7888;BME280;3989;48.810;9.208;2023-07-13T01:33:21;98755.34;;;18.36;89.32
7888;BME280;3989;48.810;9.208;2023-07-13T01:35:48;98749.53;;;18.21;90.80
7888;BME280;3989;48.810;9.208;2023-07-13T01:38:18;98755.78;;;18.21;93.85
7888;BME280;3989;48.810;9.208;2023-07-13T01:40:45;98762.09;;;18.15;94.21
7888;BME280;3989;48.810;9.208;2023-07-13T01:43:13;98730.31;;;17.81;94.87
7888;BME280;3989;48.810;9.208;2023-07-13T01:45:39;98757.72;;;18.14;88.22
7888;BME280;3989;48.810;9.208;2023-07-13T01:48:06;98729.94;;;17.96;87.45
7888;BME280;3989;48.810;9.208;2023-07-13T01:50:33;98695.84;;;17.65;91.88
7888;BME280;3989;48.810;9.208;2023-07-13T01:52:59;98767.75;;;17.96;96.60
7888;BME280;3989;48.810;9.208;2023-07-13T01:55:28;98766.53;;;17.92;96.90
7888;BME280;3989;48.810;9.208;2023-07-13T01:57:55;98744.22;;;17.66;98.33
7888;BME280;3989;48.810;9.208;2023-07-13T02:00:23;98760.53;;;17.71;99.54
7888;BME280;3989;48.810;9.208;2023-07-13T02:02:49;98739.97;;;17.34;100.00
7888;BME280;3989;48.810;9.208;2023-07-13T02:05:16;98774.16;;;17.58;100.00
7888;BME280;3989;48.810;9.208;2023-07-13T02:07:43;98754.88;;;17.55;100.00
7888;BME280;3989;48.810;9.208;2023-07-13T02:10:10;98727.81;;;17.25;100.00
7888;BME280;3989;48.810;9.208;2023-07-13T02:12:39;98779.00;;;17.50;100.00
7888;BME280;3989;48.810;9.208;2023-07-13T02:15:07;98773.38;;;17.51;99.76
7888;BME280;3989;48.810;9.208;2023-07-13T02:17:34;98769.69;;;17.46;100.00
7888;BME280;3989;48.810;9.208;2023-07-13T02:20:01;98768.06;;;17.45;100.00
7888;BME280;3989;48.810;9.208;2023-07-13T02:22:28;98780.13;;;17.42;100.00
7888;BME280;3989;48.810;9.208;2023-07-13T02:24:55;98772.16;;;17.29;100.00
7888;BME280;3989;48.810;9.208;2023-07-13T02:27:21;98776.75;;;17.28;100.00
7888;BME280;3989;48.810;9.208;2023-07-13T02:29:49;98769.25;;;17.30;100.00
7888;BME280;3989;48.810;9.208;2023-07-13T02:32:16;98765.38;;;17.20;100.00
7888;BME280;3989;48.810;9.208;2023-07-13T02:34:43;98743.94;;;17.07;100.00
7888;BME280;3989;48.810;9.208;2023-07-13T02:37:10;98787.53;;;17.28;100.00
7888;BME280;3989;48.810;9.208;2023-07-13T02:39:37;98769.03;;;17.07;100.00
7888;BME280;3989;48.810;9.208;2023-07-13T02:42:04;98776.56;;;16.99;100.00
7888;BME280;3989;48.810;9.208;2023-07-13T02:44:31;98769.69;;;16.78;100.00
7888;BME280;3989;48.810;9.208;2023-07-13T02:46:59;98796.19;;;16.81;100.00
7888;BME280;3989;48.810;9.208;2023-07-13T02:49:25;98799.28;;;16.85;100.00
7888;BME280;3989;48.810;9.208;2023-07-13T02:51:52;98744.38;;;16.48;100.00
7888;BME280;3989;48.810;9.208;2023-07-13T02:54:19;98789.03;;;16.68;100.00
7888;BME280;3989;48.810;9.208;2023-07-13T02:56:45;98773.34;;;16.52;100.00
7888;BME280;3989;48.810;9.208;2023-07-13T02:59:12;98762.50;;;16.34;100.00
7888;BME280;3989;48.810;9.208;2023-07-13T03:01:38;98798.47;;;16.46;100.00
7888;BME280;3989;48.810;9.208;2023-07-13T03:04:07;98768.38;;;16.18;100.00
7888;BME280;3989;48.810;9.208;2023-07-13T03:06:34;98779.09;;;16.24;100.00
7888;BME280;3989;48.810;9.208;2023-07-13T03:09:00;98791.91;;;16.29;100.00
7888;BME280;3989;48.810;9.208;2023-07-13T03:11:27;98812.44;;;16.30;100.00
7888;BME280;3989;48.810;9.208;2023-07-13T03:13:54;98755.03;;;15.92;100.00
7888;BME280;3989;48.810;9.208;2023-07-13T03:16:21;98806.00;;;16.31;100.00
7888;BME280;3989;48.810;9.208;2023-07-13T03:19:02;98747.34;;;15.95;100.00
7888;BME280;3989;48.810;9.208;2023-07-13T03:21:41;98777.63;;;16.28;100.00
7888;BME280;3989;48.810;9.208;2023-07-13T03:24:08;98758.16;;;16.26;100.00
7888;BME280;3989;48.810;9.208;2023-07-13T03:26:51;98813.50;;;16.67;100.00
7888;BME280;3989;48.810;9.208;2023-07-13T03:29:18;98819.88;;;16.72;100.00
7888;BME280;3989;48.810;9.208;2023-07-13T03:31:44;98825.19;;;16.86;100.00
7888;BME280;3989;48.810;9.208;2023-07-13T03:34:11;98815.84;;;16.88;100.00
7888;BME280;3989;48.810;9.208;2023-07-13T03:36:38;98820.16;;;16.96;100.00
7888;BME280;3989;48.810;9.208;2023-07-13T03:39:37;98794.81;;;16.97;100.00
7888;BME280;3989;48.810;9.208;2023-07-13T03:42:11;98773.09;;;16.92;100.00
7888;BME280;3989;48.810;9.208;2023-07-13T03:44:39;98786.44;;;17.11;100.00
7888;BME280;3989;48.810;9.208;2023-07-13T03:47:06;98842.72;;;17.51;100.00
7888;BME280;3989;48.810;9.208;2023-07-13T03:49:34;98832.50;;;17.59;100.00
7888;BME280;3989;48.810;9.208;2023-07-13T03:52:01;98805.59;;;17.46;100.00
7888;BME280;3989;48.810;9.208;2023-07-13T03:54:27;98845.88;;;17.72;100.00
7888;BME280;3989;48.810;9.208;2023-07-13T03:56:56;98814.38;;;17.66;100.00
7888;BME280;3989;48.810;9.208;2023-07-13T03:59:22;98781.31;;;17.46;100.00
7888;BME280;3989;48.810;9.208;2023-07-13T04:01:49;98851.06;;;17.92;100.00
7888;BME280;3989;48.810;9.208;2023-07-13T04:04:15;98852.88;;;17.98;100.00
7888;BME280;3989;48.810;9.208;2023-07-13T04:06:42;98797.56;;;17.64;100.00
7888;BME280;3989;48.810;9.208;2023-07-13T04:09:09;98844.75;;;17.98;100.00
7888;BME280;3989;48.810;9.208;2023-07-13T04:11:35;98847.22;;;18.00;100.00
7888;BME280;3989;48.810;9.208;2023-07-13T04:14:04;98756.91;;;17.41;100.00
7888;BME280;3989;48.810;9.208;2023-07-13T04:16:30;98846.19;;;18.01;100.00
7888;BME280;3989;48.810;9.208;2023-07-13T04:18:57;98840.41;;;17.97;100.00
7888;BME280;3989;48.810;9.208;2023-07-13T04:21:25;98815.78;;;17.87;100.00
7888;BME280;3989;48.810;9.208;2023-07-13T04:23:52;98809.53;;;17.93;100.00
7888;BME280;3989;48.810;9.208;2023-07-13T04:26:19;98848.44;;;18.22;100.00
7888;BME280;3989;48.810;9.208;2023-07-13T04:28:46;98844.84;;;18.28;100.00
7888;BME280;3989;48.810;9.208;2023-07-13T04:31:14;98862.13;;;18.38;98.45
7888;BME280;3989;48.810;9.208;2023-07-13T04:33:41;98841.81;;;18.36;98.32
7888;BME280;3989;48.810;9.208;2023-07-13T04:36:08;98815.03;;;18.16;98.31
7888;BME280;3989;48.810;9.208;2023-07-13T04:38:36;98846.72;;;18.27;99.74
7888;BME280;3989;48.810;9.208;2023-07-13T04:41:04;98857.28;;;18.29;94.68
7888;BME280;3989;48.810;9.208;2023-07-13T04:43:32;98860.75;;;18.18;97.27
7888;BME280;3989;48.810;9.208;2023-07-13T04:46:03;98866.06;;;18.06;99.84
7888;BME280;3989;48.810;9.208;2023-07-13T04:48:32;98846.56;;;17.86;98.84
7888;BME280;3989;48.810;9.208;2023-07-13T04:50:59;98860.91;;;17.87;100.00
7888;BME280;3989;48.810;9.208;2023-07-13T04:53:27;98866.34;;;17.80;100.00
7888;BME280;3989;48.810;9.208;2023-07-13T04:55:54;98865.59;;;17.73;100.00
7888;BME280;3989;48.810;9.208;2023-07-13T04:58:20;98845.34;;;17.64;100.00
7888;BME280;3989;48.810;9.208;2023-07-13T05:00:47;98875.63;;;17.84;100.00
7888;BME280;3989;48.810;9.208;2023-07-13T05:03:14;98877.22;;;17.92;100.00
7888;BME280;3989;48.810;9.208;2023-07-13T05:05:42;98876.78;;;17.95;100.00
7888;BME280;3989;48.810;9.208;2023-07-13T05:08:12;98844.44;;;17.88;100.00
7888;BME280;3989;48.810;9.208;2023-07-13T05:10:39;98818.28;;;17.89;100.00
7888;BME280;3989;48.810;9.208;2023-07-13T05:13:05;98873.78;;;18.39;95.25
7888;BME280;3989;48.810;9.208;2023-07-13T05:15:33;98834.41;;;18.50;90.90
7888;BME280;3989;48.810;9.208;2023-07-13T05:17:59;98858.56;;;18.93;84.54
7888;BME280;3989;48.810;9.208;2023-07-13T05:20:26;98850.72;;;19.14;82.56
7888;BME280;3989;48.810;9.208;2023-07-13T05:22:54;98808.75;;;19.12;80.55
7888;BME280;3989;48.810;9.208;2023-07-13T05:25:20;98831.69;;;19.32;75.25
7888;BME280;3989;48.810;9.208;2023-07-13T05:27:49;98802.63;;;19.28;73.25
7888;BME280;3989;48.810;9.208;2023-07-13T05:30:16;98805.81;;;19.36;71.81
7888;BME280;3989;48.810;9.208;2023-07-13T05:32:44;98790.97;;;19.39;69.94
7888;BME280;3989;48.810;9.208;2023-07-13T05:35:11;98850.72;;;19.67;66.66
7888;BME280;3989;48.810;9.208;2023-07-13T05:37:38;98876.72;;;19.80;67.48
7888;BME280;3989;48.810;9.208;2023-07-13T05:40:11;98827.06;;;19.51;67.23
7888;BME280;3989;48.810;9.208;2023-07-13T05:42:41;98810.56;;;19.41;66.81
7888;BME280;3989;48.810;9.208;2023-07-13T05:45:12;98872.72;;;19.71;69.36
7888;BME280;3989;48.810;9.208;2023-07-13T05:47:39;98822.88;;;19.25;70.55
7888;BME280;3989;48.810;9.208;2023-07-13T05:50:07;98852.31;;;19.45;71.69
7888;BME280;3989;48.810;9.208;2023-07-13T05:52:36;98837.47;;;19.36;68.82
7888;BME280;3989;48.810;9.208;2023-07-13T05:55:18;98884.00;;;19.56;67.18
7888;BME280;3989;48.810;9.208;2023-07-13T05:57:45;98897.78;;;19.66;70.09
7888;BME280;3989;48.810;9.208;2023-07-13T06:00:13;98897.44;;;19.74;68.71
7888;BME280;3989;48.810;9.208;2023-07-13T06:02:39;98862.44;;;19.61;67.60
7888;BME280;3989;48.810;9.208;2023-07-13T06:05:06;98844.22;;;19.68;68.34
7888;BME280;3989;48.810;9.208;2023-07-13T06:07:37;98897.91;;;20.18;65.90
7888;BME280;3989;48.810;9.208;2023-07-13T06:10:11;98906.63;;;20.31;62.90
7888;BME280;3989;48.810;9.208;2023-07-13T06:12:49;98901.44;;;20.41;62.29
7888;BME280;3989;48.810;9.208;2023-07-13T06:15:15;98867.38;;;20.22;61.33
7888;BME280;3989;48.810;9.208;2023-07-13T06:17:42;98889.50;;;20.42;60.33
7888;BME280;3989;48.810;9.208;2023-07-13T06:20:09;98887.69;;;20.60;58.24
7888;BME280;3989;48.810;9.208;2023-07-13T06:22:36;98909.41;;;20.88;57.71
7888;BME280;3989;48.810;9.208;2023-07-13T06:25:03;98912.09;;;21.00;56.73
7888;BME280;3989;48.810;9.208;2023-07-13T06:27:30;98912.25;;;20.81;55.26
7888;BME280;3989;48.810;9.208;2023-07-13T06:29:58;98937.41;;;20.77;54.96
7888;BME280;3989;48.810;9.208;2023-07-13T06:32:26;98848.41;;;20.11;56.79
7888;BME280;3989;48.810;9.208;2023-07-13T06:34:53;98912.06;;;20.31;57.11
7888;BME280;3989;48.810;9.208;2023-07-13T06:37:19;98918.41;;;20.25;58.61
7888;BME280;3989;48.810;9.208;2023-07-13T06:39:46;98860.34;;;19.98;56.29
7888;BME280;3989;48.810;9.208;2023-07-13T06:42:15;98861.25;;;20.27;56.82
7888;BME280;3989;48.810;9.208;2023-07-13T06:44:42;98944.63;;;21.11;55.55
7888;BME280;3989;48.810;9.208;2023-07-13T06:47:12;98890.47;;;21.16;55.17
7888;BME280;3989;48.810;9.208;2023-07-13T06:49:39;98945.41;;;22.02;53.27
7888;BME280;3989;48.810;9.208;2023-07-13T06:52:06;98962.53;;;22.19;51.33
7888;BME280;3989;48.810;9.208;2023-07-13T06:54:33;98927.75;;;22.04;50.57
7888;BME280;3989;48.810;9.208;2023-07-13T06:57:00;98955.22;;;22.03;49.84
7888;BME280;3989;48.810;9.208;2023-07-13T06:59:27;98871.47;;;21.66;50.06
7888;BME280;3989;48.810;9.208;2023-07-13T07:01:53;98961.75;;;22.23;49.07
7888;BME280;3989;48.810;9.208;2023-07-13T07:04:22;98944.00;;;22.16;49.44
7888;BME280;3989;48.810;9.208;2023-07-13T07:06:49;98897.78;;;21.82;49.64
7888;BME280;3989;48.810;9.208;2023-07-13T07:09:16;98879.22;;;21.41;49.41
7888;BME280;3989;48.810;9.208;2023-07-13T07:11:42;98963.81;;;21.83;50.16
7888;BME280;3989;48.810;9.208;2023-07-13T07:14:09;98939.69;;;21.70;50.13
7888;BME280;3989;48.810;9.208;2023-07-13T07:16:36;98906.94;;;21.76;49.26
7888;BME280;3989;48.810;9.208;2023-07-13T07:19:03;98890.25;;;21.51;48.58
7888;BME280;3989;48.810;9.208;2023-07-13T07:21:31;98961.25;;;22.26;48.35
7888;BME280;3989;48.810;9.208;2023-07-13T07:23:58;98872.97;;;21.90;47.56
7888;BME280;3989;48.810;9.208;2023-07-13T07:26:25;98941.97;;;22.44;47.25
7888;BME280;3989;48.810;9.208;2023-07-13T07:28:51;98932.78;;;22.12;45.41
7888;BME280;3989;48.810;9.208;2023-07-13T07:31:18;98951.69;;;22.40;46.04
7888;BME280;3989;48.810;9.208;2023-07-13T07:33:45;98937.38;;;22.28;45.44
7888;BME280;3989;48.810;9.208;2023-07-13T07:36:16;98921.50;;;22.04;45.50
7888;BME280;3989;48.810;9.208;2023-07-13T07:38:44;98953.56;;;22.40;43.94
7888;BME280;3989;48.810;9.208;2023-07-13T07:41:13;98952.00;;;22.44;43.87
7888;BME280;3989;48.810;9.208;2023-07-13T07:43:39;98908.16;;;22.19;44.99
7888;BME280;3989;48.810;9.208;2023-07-13T07:46:06;98953.69;;;22.28;45.51
7888;BME280;3989;48.810;9.208;2023-07-13T07:48:33;98896.56;;;21.73;45.54
7888;BME280;3989;48.810;9.208;2023-07-13T07:51:00;98957.81;;;22.31;44.91
7888;BME280;3989;48.810;9.208;2023-07-13T07:53:26;98908.88;;;22.31;44.89
7888;BME280;3989;48.810;9.208;2023-07-13T07:55:54;98956.59;;;22.82;43.93
7888;BME280;3989;48.810;9.208;2023-07-13T07:58:22;98970.81;;;22.84;43.30
7888;BME280;3989;48.810;9.208;2023-07-13T08:00:48;98962.63;;;22.84;43.03
7888;BME280;3989;48.810;9.208;2023-07-13T08:03:15;98966.16;;;22.84;43.61
7888;BME280;3989;48.810;9.208;2023-07-13T08:05:42;98943.34;;;22.47;43.54
7888;BME280;3989;48.810;9.208;2023-07-13T08:08:09;98899.41;;;22.17;42.51
7888;BME280;3989;48.810;9.208;2023-07-13T08:10:36;98967.97;;;22.57;42.36
7888;BME280;3989;48.810;9.208;2023-07-13T08:13:05;98933.44;;;22.58;42.68
7888;BME280;3989;48.810;9.208;2023-07-13T08:15:32;98952.63;;;22.68;42.48
7888;BME280;3989;48.810;9.208;2023-07-13T08:17:58;98902.19;;;22.60;42.08
7888;BME280;3989;48.810;9.208;2023-07-13T08:20:25;98941.88;;;22.99;42.00
7888;BME280;3989;48.810;9.208;2023-07-13T08:22:52;98913.84;;;22.77;42.19
7888;BME280;3989;48.810;9.208;2023-07-13T08:25:18;98898.03;;;22.74;42.24
7888;BME280;3989;48.810;9.208;2023-07-13T08:27:46;98906.50;;;22.78;42.09
7888;BME280;3989;48.810;9.208;2023-07-13T08:30:14;98929.66;;;22.80;41.80
7888;BME280;3989;48.810;9.208;2023-07-13T08:32:41;98979.28;;;23.36;41.98
7888;BME280;3989;48.810;9.208;2023-07-13T08:35:08;98961.16;;;23.46;41.75
7888;BME280;3989;48.810;9.208;2023-07-13T08:37:35;98963.91;;;23.25;41.32
7888;BME280;3989;48.810;9.208;2023-07-13T08:40:01;98904.34;;;22.58;42.00
7888;BME280;3989;48.810;9.208;2023-07-13T08:42:37;98943.38;;;23.12;41.66
7888;BME280;3989;48.810;9.208;2023-07-13T08:45:17;98888.34;;;22.83;41.93
7888;BME280;3989;48.810;9.208;2023-07-13T08:47:49;98897.69;;;23.19;41.86
7888;BME280;3989;48.810;9.208;2023-07-13T08:50:23;98975.00;;;23.67;41.68
7888;BME280;3989;48.810;9.208;2023-07-13T08:52:52;98972.19;;;23.35;42.09
7888;BME280;3989;48.810;9.208;2023-07-13T08:55:25;98968.78;;;23.44;42.02
7888;BME280;3989;48.810;9.208;2023-07-13T08:58:00;98968.28;;;23.79;41.84
7888;BME280;3989;48.810;9.208;2023-07-13T09:03:21;98945.06;;;24.03;41.55
7888;BME280;3989;48.810;9.208;2023-07-13T09:05:54;98920.81;;;23.75;40.96
7888;BME280;3989;48.810;9.208;2023-07-13T09:08:38;98972.03;;;24.05;40.59
7888;BME280;3989;48.810;9.208;2023-07-13T09:11:18;98949.81;;;23.55;40.87
7888;BME280;3989;48.810;9.208;2023-07-13T09:13:56;98933.78;;;23.95;40.51
7888;BME280;3989;48.810;9.208;2023-07-13T09:16:26;98889.00;;;23.81;40.44
7888;BME280;3989;48.810;9.208;2023-07-13T09:18:56;98972.78;;;24.27;39.84
7888;BME280;3989;48.810;9.208;2023-07-13T09:21:30;98895.69;;;24.05;39.41
7888;BME280;3989;48.810;9.208;2023-07-13T09:27:14;98900.44;;;24.15;39.16
7888;BME280;3989;48.810;9.208;2023-07-13T09:29:54;98891.81;;;23.91;39.33
7888;BME280;3989;48.810;9.208;2023-07-13T09:41:27;98965.50;;;24.43;39.47
7888;BME280;3989;48.810;9.208;2023-07-13T09:44:02;98967.06;;;24.29;39.95
7888;BME280;3989;48.810;9.208;2023-07-13T09:46:28;98956.41;;;24.74;39.17
7888;BME280;3989;48.810;9.208;2023-07-13T09:48:56;98968.50;;;24.88;38.47
7888;BME280;3989;48.810;9.208;2023-07-13T09:51:22;98953.47;;;24.86;38.23
7888;BME280;3989;48.810;9.208;2023-07-13T09:53:49;98968.81;;;25.02;38.21
7888;BME280;3989;48.810;9.208;2023-07-13T09:56:29;98903.25;;;24.87;37.88
7888;BME280;3989;48.810;9.208;2023-07-13T09:58:56;98891.59;;;25.17;37.79
7888;BME280;3989;48.810;9.208;2023-07-13T10:01:35;98968.44;;;25.61;37.93
7888;BME280;3989;48.810;9.208;2023-07-13T10:04:26;98913.47;;;25.32;38.26
7888;BME280;3989;48.810;9.208;2023-07-13T10:07:04;98884.69;;;24.84;37.80
7888;BME280;3989;48.810;9.208;2023-07-13T10:09:33;98967.50;;;25.10;38.16
7888;BME280;3989;48.810;9.208;2023-07-13T10:12:02;98944.91;;;24.72;39.13
7888;BME280;3989;48.810;9.208;2023-07-13T10:14:32;98896.91;;;24.76;39.20
7888;BME280;3989;48.810;9.208;2023-07-13T10:17:00;98949.06;;;25.52;38.44
7888;BME280;3989;48.810;9.208;2023-07-13T10:19:31;98906.66;;;25.39;37.73
7888;BME280;3989;48.810;9.208;2023-07-13T10:22:00;98968.47;;;25.86;37.57
7888;BME280;3989;48.810;9.208;2023-07-13T10:24:30;98892.75;;;25.56;36.86
7888;BME280;3989;48.810;9.208;2023-07-13T10:27:05;98908.88;;;25.78;37.08
7888;BME280;3989;48.810;9.208;2023-07-13T10:29:39;98904.44;;;25.31;36.41
7888;BME280;3989;48.810;9.208;2023-07-13T10:32:09;98911.59;;;25.83;36.33
7888;BME280;3989;48.810;9.208;2023-07-13T10:34:37;98930.19;;;26.26;36.13
7888;BME280;3989;48.810;9.208;2023-07-13T10:37:05;98955.84;;;26.45;35.78
7888;BME280;3989;48.810;9.208;2023-07-13T10:39:35;98888.66;;;26.83;35.75
7888;BME280;3989;48.810;9.208;2023-07-13T10:42:06;98944.66;;;27.11;35.35
7888;BME280;3989;48.810;9.208;2023-07-13T10:44:38;98941.13;;;27.05;34.51
7888;BME280;3989;48.810;9.208;2023-07-13T10:47:07;98917.72;;;26.69;34.83
7888;BME280;3989;48.810;9.208;2023-07-13T10:49:36;98946.91;;;27.04;35.32
7888;BME280;3989;48.810;9.208;2023-07-13T10:52:05;98963.66;;;26.92;35.79
7888;BME280;3989;48.810;9.208;2023-07-13T10:54:33;98915.84;;;26.65;35.39
7888;BME280;3989;48.810;9.208;2023-07-13T10:57:17;98968.09;;;26.73;35.81
7888;BME280;3989;48.810;9.208;2023-07-13T10:59:49;98957.47;;;26.46;36.76
7888;BME280;3989;48.810;9.208;2023-07-13T11:02:35;98941.94;;;26.01;36.42
7888;BME280;3989;48.810;9.208;2023-07-13T11:05:18;98951.75;;;26.48;36.02
7888;BME280;3989;48.810;9.208;2023-07-13T11:08:12;98947.72;;;26.20;36.73
7888;BME280;3989;48.810;9.208;2023-07-13T11:10:50;98859.38;;;25.44;36.66
7888;BME280;3989;48.810;9.208;2023-07-13T11:16:41;98888.06;;;25.26;37.93
7888;BME280;3989;48.810;9.208;2023-07-13T11:19:37;98929.09;;;25.87;37.65
7888;BME280;3989;48.810;9.208;2023-07-13T11:22:13;98907.50;;;25.75;37.91
7888;BME280;3989;48.810;9.208;2023-07-13T11:24:56;98937.81;;;26.14;37.75
7888;BME280;3989;48.810;9.208;2023-07-13T11:27:34;98938.81;;;26.69;37.31
7888;BME280;3989;48.810;9.208;2023-07-13T11:30:21;98907.88;;;26.68;35.39
7888;BME280;3989;48.810;9.208;2023-07-13T11:33:02;98930.47;;;27.04;35.86
7888;BME280;3989;48.810;9.208;2023-07-13T11:35:33;98812.31;;;27.16;35.01
7888;BME280;3989;48.810;9.208;2023-07-13T11:38:01;98850.56;;;27.31;34.04
7888;BME280;3989;48.810;9.208;2023-07-13T11:40:29;98927.34;;;27.98;33.99
7888;BME280;3989;48.810;9.208;2023-07-13T11:42:59;98933.00;;;27.44;34.86
7888;BME280;3989;48.810;9.208;2023-07-13T11:45:26;98928.47;;;27.14;34.49
7888;BME280;3989;48.810;9.208;2023-07-13T11:47:54;98844.34;;;25.97;35.84
7888;BME280;3989;48.810;9.208;2023-07-13T11:50:23;98895.19;;;25.93;35.59
7888;BME280;3989;48.810;9.208;2023-07-13T11:52:51;98939.72;;;26.49;35.52
7888;BME280;3989;48.810;9.208;2023-07-13T11:55:21;98914.66;;;26.86;35.44
7888;BME280;3989;48.810;9.208;2023-07-13T11:57:51;98933.25;;;27.48;34.21
7888;BME280;3989;48.810;9.208;2023-07-13T12:00:21;98948.53;;;27.10;34.34
7888;BME280;3989;48.810;9.208;2023-07-13T12:02:50;98925.38;;;26.72;35.27
7888;BME280;3989;48.810;9.208;2023-07-13T12:05:20;98889.28;;;26.60;34.95
7888;BME280;3989;48.810;9.208;2023-07-13T12:07:47;98940.72;;;27.27;34.80
7888;BME280;3989;48.810;9.208;2023-07-13T12:10:19;98930.53;;;26.89;34.98
7888;BME280;3989;48.810;9.208;2023-07-13T12:12:48;98933.53;;;26.97;34.98
7888;BME280;3989;48.810;9.208;2023-07-13T12:15:17;98923.94;;;27.49;34.04
7888;BME280;3989;48.810;9.208;2023-07-13T12:17:44;98859.59;;;27.36;33.52
7888;BME280;3989;48.810;9.208;2023-07-13T12:20:23;98845.94;;;26.82;33.96
7888;BME280;3989;48.810;9.208;2023-07-13T12:22:54;98918.16;;;27.50;34.03
7888;BME280;3989;48.810;9.208;2023-07-13T12:25:28;98906.97;;;27.76;33.62
7888;BME280;3989;48.810;9.208;2023-07-13T12:27:55;98910.84;;;27.31;34.01
7888;BME280;3989;48.810;9.208;2023-07-13T12:30:25;98831.47;;;26.82;33.93
7888;BME280;3989;48.810;9.208;2023-07-13T12:32:59;98919.09;;;27.98;33.56
7888;BME280;3989;48.810;9.208;2023-07-13T12:35:29;98819.63;;;27.64;32.48
7888;BME280;3989;48.810;9.208;2023-07-13T12:38:01;98913.41;;;27.95;32.94
7888;BME280;3989;48.810;9.208;2023-07-13T12:40:32;98867.81;;;27.36;33.15
7888;BME280;3989;48.810;9.208;2023-07-13T12:43:00;98913.81;;;27.39;32.93
7888;BME280;3989;48.810;9.208;2023-07-13T12:45:30;98914.66;;;27.40;32.83
7888;BME280;3989;48.810;9.208;2023-07-13T12:47:59;98914.34;;;27.80;33.73
7888;BME280;3989;48.810;9.208;2023-07-13T12:50:36;98857.47;;;27.23;32.83
7888;BME280;3989;48.810;9.208;2023-07-13T12:53:05;98879.34;;;27.72;33.00
7888;BME280;3989;48.810;9.208;2023-07-13T12:55:41;98913.59;;;27.70;32.43
7888;BME280;3989;48.810;9.208;2023-07-13T12:58:16;98879.66;;;26.73;33.24
7888;BME280;3989;48.810;9.208;2023-07-13T13:00:49;98924.69;;;27.10;33.13
7888;BME280;3989;48.810;9.208;2023-07-13T13:03:22;98817.75;;;26.77;33.63
7888;BME280;3989;48.810;9.208;2023-07-13T13:05:58;98837.91;;;27.01;33.60
7888;BME280;3989;48.810;9.208;2023-07-13T13:08:29;98917.66;;;27.38;32.71
7888;BME280;3989;48.810;9.208;2023-07-13T13:10:56;98908.09;;;27.36;32.95
7888;BME280;3989;48.810;9.208;2023-07-13T13:13:22;98877.97;;;27.70;32.62
7888;BME280;3989;48.810;9.208;2023-07-13T13:15:49;98907.00;;;28.04;31.86
7888;BME280;3989;48.810;9.208;2023-07-13T13:18:18;98876.03;;;28.28;31.49
7888;BME280;3989;48.810;9.208;2023-07-13T13:20:46;98832.66;;;27.77;31.61
7888;BME280;3989;48.810;9.208;2023-07-13T13:23:16;98842.31;;;27.70;32.07
7888;BME280;3989;48.810;9.208;2023-07-13T13:25:46;98839.53;;;27.75;31.41
7888;BME280;3989;48.810;9.208;2023-07-13T13:28:14;98831.69;;;28.21;31.11
7888;BME280;3989;48.810;9.208;2023-07-13T13:30:42;98900.00;;;28.70;31.18
7888;BME280;3989;48.810;9.208;2023-07-13T13:33:11;98916.72;;;28.49;31.32
7888;BME280;3989;48.810;9.208;2023-07-13T13:35:46;98842.13;;;27.90;31.26
7888;BME280;3989;48.810;9.208;2023-07-13T13:38:23;98782.09;;;27.59;31.44
7888;BME280;3989;48.810;9.208;2023-07-13T13:40:52;98868.50;;;28.14;31.38
7888;BME280;3989;48.810;9.208;2023-07-13T13:43:25;98841.03;;;28.43;31.41
7888;BME280;3989;48.810;9.208;2023-07-13T13:45:53;98917.13;;;29.46;30.51
7888;BME280;3989;48.810;9.208;2023-07-13T13:48:29;98818.16;;;28.24;30.61
7888;BME280;3989;48.810;9.208;2023-07-13T13:50:57;98801.66;;;28.29;30.37